createdAt,value
2023-06-18T00:04:33.904Z,16.52
2023-06-18T00:09:36.709Z,16.48
2023-06-18T00:14:41.374Z,16.52
2023-06-18T00:19:44.174Z,16.55
2023-06-18T00:24:46.956Z,16.51
2023-06-18T00:29:51.104Z,16.39
2023-06-18T00:34:55.857Z,16.38
2023-06-18T00:39:58.622Z,16.28
2023-06-18T00:45:04.077Z,16.23
2023-06-18T00:50:07.799Z,16.04
2023-06-18T00:55:10.974Z,15.99
2023-06-18T01:00:15.712Z,15.82
2023-06-18T01:05:18.825Z,15.81
2023-06-18T01:10:22.986Z,15.83
2023-06-18T01:15:30.732Z,15.79
2023-06-18T01:20:33.816Z,15.68
2023-06-18T01:25:37.912Z,15.61
2023-06-18T01:30:42.197Z,15.51
2023-06-18T01:35:45.055Z,15.51
2023-06-18T01:40:50.157Z,15.49
2023-06-18T01:45:58.367Z,15.53
2023-06-18T01:51:01.731Z,15.46
2023-06-18T01:56:04.890Z,15.36
2023-06-18T02:01:10.850Z,15.49
2023-06-18T02:06:13.823Z,15.38
2023-06-18T02:11:18.390Z,15.19
2023-06-18T02:16:22.668Z,15.28
2023-06-18T02:21:27.812Z,15.36
2023-06-18T02:26:31.749Z,15.27
2023-06-18T02:31:36.065Z,15.13
2023-06-18T02:36:39.937Z,15.12
2023-06-18T02:41:46.542Z,15.04
2023-06-18T02:46:50.901Z,15.00
2023-06-18T02:51:54.695Z,15.03
2023-06-18T02:56:57.633Z,14.99
2023-06-18T03:02:02.102Z,14.84
2023-06-18T03:07:05.438Z,14.89
2023-06-18T03:12:08.976Z,15.03
2023-06-18T03:17:13.197Z,15.03
2023-06-18T03:22:16.134Z,14.97
2023-06-18T03:27:19.092Z,14.84
2023-06-18T03:32:23.333Z,14.85
2023-06-18T03:37:26.198Z,14.87
2023-06-18T03:42:29.635Z,14.94
2023-06-18T03:47:34.052Z,14.96
2023-06-18T03:52:37.053Z,14.99
2023-06-18T03:57:40.386Z,15.09
2023-06-18T04:02:46.887Z,15.22
2023-06-18T04:07:56.328Z,15.23
2023-06-18T04:12:59.499Z,15.29
2023-06-18T04:18:04.031Z,15.38
2023-06-18T04:23:07.437Z,15.40
2023-06-18T04:28:10.366Z,15.53
2023-06-18T04:33:14.649Z,15.61
2023-06-18T04:38:18.853Z,15.71
2023-06-18T04:43:21.870Z,15.76
2023-06-18T04:48:26.062Z,15.82
2023-06-18T04:53:30.419Z,16.00
2023-06-18T04:58:37.811Z,16.20
2023-06-18T05:03:43.883Z,16.26
2023-06-18T05:08:47.954Z,16.37
2023-06-18T05:13:52.138Z,16.41
2023-06-18T05:18:56.469Z,16.49
2023-06-18T05:23:59.379Z,16.59
2023-06-18T05:29:02.621Z,16.70
2023-06-18T05:34:07.349Z,16.77
2023-06-18T05:39:11.300Z,16.91
2023-06-18T05:44:14.655Z,17.01
2023-06-18T05:49:18.940Z,17.10
2023-06-18T05:54:23.060Z,17.23
2023-06-18T05:59:25.902Z,17.29
2023-06-18T06:04:37.237Z,17.41
2023-06-18T06:09:41.749Z,17.57
2023-06-18T06:14:44.709Z,17.63
2023-06-18T06:19:48.971Z,17.70
2023-06-18T06:24:51.872Z,17.88
2023-06-18T06:29:54.741Z,17.99
2023-06-18T06:34:59.002Z,18.17
2023-06-18T06:40:01.907Z,18.33
2023-06-18T06:45:08.234Z,18.48
2023-06-18T06:50:26.142Z,18.65
2023-06-18T06:55:38.289Z,18.77
2023-06-18T07:00:41.422Z,18.89
2023-06-18T07:05:46.907Z,19.02
2023-06-18T07:10:49.669Z,19.17
2023-06-18T07:15:52.453Z,19.30
2023-06-18T07:20:56.719Z,19.42
2023-06-18T07:25:59.502Z,19.61
2023-06-18T07:31:02.645Z,19.72
2023-06-18T07:36:07.198Z,19.85
2023-06-18T07:41:09.988Z,19.94
2023-06-18T07:46:12.914Z,20.10
2023-06-18T07:51:17.101Z,20.25
2023-06-18T07:56:20.021Z,20.39
2023-06-18T08:01:22.905Z,20.46
2023-06-18T08:06:27.082Z,20.55
2023-06-18T08:11:29.885Z,20.68
2023-06-18T08:16:32.749Z,20.83
2023-06-18T08:21:36.946Z,20.93
2023-06-18T08:26:39.815Z,21.10
2023-06-18T08:31:43.796Z,21.19
2023-06-18T08:36:48.641Z,21.34
2023-06-18T08:41:52.039Z,21.47
2023-06-18T08:47:01.145Z,21.56
2023-06-18T08:52:10.975Z,21.70
2023-06-18T08:57:17.902Z,21.85
2023-06-18T09:02:22.585Z,21.99
2023-06-18T09:07:27.134Z,22.31
2023-06-18T09:12:30.048Z,22.71
2023-06-18T09:17:33.715Z,22.93
2023-06-18T09:22:47.259Z,23.28
2023-06-18T09:27:50.458Z,23.58
2023-06-18T09:32:54.909Z,23.53
2023-06-18T09:38:09.845Z,23.37
2023-06-18T09:43:12.808Z,23.50
2023-06-18T09:48:16.040Z,23.61
2023-06-18T09:53:21.326Z,24.05
2023-06-18T09:58:41.101Z,24.34
2023-06-18T10:03:44.609Z,24.81
2023-06-18T10:08:50.372Z,24.77
2023-06-18T10:13:57.396Z,24.56
2023-06-18T10:19:04.847Z,24.58
2023-06-18T10:24:14.182Z,24.53
2023-06-18T10:29:17.413Z,24.86
2023-06-18T10:34:20.278Z,25.04
2023-06-18T10:39:25.825Z,24.58
2023-06-18T10:44:35.682Z,24.63
2023-06-18T10:49:39.728Z,25.08
2023-06-18T10:54:45.990Z,25.18
2023-06-18T10:59:50.853Z,24.91
2023-06-18T11:04:54.318Z,24.89
2023-06-18T11:09:59.517Z,24.96
2023-06-18T11:15:20.141Z,25.40
2023-06-18T11:20:25.389Z,25.83
2023-06-18T11:25:30.785Z,26.15
2023-06-18T11:30:34.124Z,26.09
2023-06-18T11:35:37.020Z,26.33
2023-06-18T11:40:50.484Z,26.54
2023-06-18T11:45:55.101Z,27.01
2023-06-18T11:50:58.227Z,27.19
2023-06-18T11:56:02.380Z,27.19
2023-06-18T12:01:05.184Z,27.58
2023-06-18T12:06:15.725Z,27.60
2023-06-18T12:11:30.356Z,28.06
2023-06-18T12:16:36.544Z,28.00
2023-06-18T12:21:39.747Z,28.01
2023-06-18T12:26:44.049Z,28.33
2023-06-18T12:32:02.669Z,28.43
2023-06-18T12:37:06.012Z,28.41
2023-06-18T12:42:13.928Z,28.73
2023-06-18T12:47:19.172Z,29.37
2023-06-18T12:52:23.065Z,29.54
2023-06-18T12:57:29.790Z,30.36
2023-06-18T13:02:32.750Z,30.96
2023-06-18T13:07:35.642Z,31.28
2023-06-18T13:12:39.860Z,31.46
2023-06-18T13:17:44.095Z,31.47
2023-06-18T13:22:47.256Z,31.43
2023-06-18T13:27:51.735Z,31.59
2023-06-18T13:32:56.499Z,32.03
2023-06-18T13:37:59.500Z,31.64
2023-06-18T13:43:04.697Z,31.43
2023-06-18T13:48:07.922Z,31.25
2023-06-18T13:53:11.531Z,31.44
2023-06-18T13:58:16.971Z,31.85
2023-06-18T14:03:19.946Z,31.84
2023-06-18T14:08:22.867Z,32.15
2023-06-18T14:13:26.986Z,31.84
2023-06-18T14:18:31.096Z,32.68
2023-06-18T14:23:34.635Z,33.87
2023-06-18T14:28:39.813Z,35.40
2023-06-18T14:33:44.387Z,40.91
2023-06-18T14:38:49.201Z,50.28
2023-06-18T14:43:53.328Z,53.51
2023-06-18T14:48:56.176Z,57.62
2023-06-18T14:54:04.650Z,59.13
2023-06-18T14:59:09.229Z,58.51
2023-06-18T15:04:22.375Z,58.72
2023-06-18T15:09:25.473Z,58.23
2023-06-18T15:14:29.653Z,58.61
2023-06-18T15:19:33.072Z,57.49
2023-06-18T15:24:36.357Z,55.59
2023-06-18T15:29:40.686Z,57.72
2023-06-18T15:34:43.464Z,58.57
2023-06-18T15:39:48.002Z,59.22
2023-06-18T15:44:52.402Z,57.53
2023-06-18T15:49:55.451Z,57.72
2023-06-18T15:54:58.307Z,55.64
2023-06-18T16:00:02.913Z,57.70
2023-06-18T16:05:11.658Z,54.05
2023-06-18T16:10:14.512Z,55.67
2023-06-18T16:15:18.881Z,56.84
2023-06-18T16:20:21.825Z,50.88
2023-06-18T16:25:24.766Z,45.85
2023-06-18T16:30:29.427Z,48.75
2023-06-18T16:35:32.410Z,42.53
2023-06-18T16:40:35.882Z,39.57
2023-06-18T16:45:41.640Z,38.12
2023-06-18T16:50:44.527Z,35.96
2023-06-18T16:55:47.319Z,35.50
2023-06-18T17:00:51.709Z,36.37
2023-06-18T17:05:54.969Z,34.77
2023-06-18T17:10:57.880Z,33.90
2023-06-18T17:16:02.283Z,32.64
2023-06-18T17:21:07.659Z,32.41
2023-06-18T17:26:11.607Z,32.46
2023-06-18T17:31:15.831Z,31.93
2023-06-18T17:36:19.509Z,31.74
2023-06-18T17:41:22.399Z,31.17
2023-06-18T17:46:26.721Z,30.85
2023-06-18T17:51:29.942Z,30.59
2023-06-18T17:56:33.926Z,30.36
2023-06-18T18:01:38.504Z,30.37
2023-06-18T18:06:41.431Z,30.82
2023-06-18T18:11:44.727Z,31.07
2023-06-18T18:16:49.272Z,30.64
2023-06-18T18:21:52.257Z,29.81
2023-06-18T18:26:55.086Z,28.89
2023-06-18T18:32:00.690Z,28.27
2023-06-18T18:37:04.793Z,28.10
2023-06-18T18:42:15.047Z,27.83
2023-06-18T18:47:26.051Z,27.22
2023-06-18T18:52:29.408Z,26.99
2023-06-18T18:57:32.352Z,26.54
2023-06-18T19:02:36.704Z,26.24
2023-06-18T19:07:39.621Z,26.08
2023-06-18T19:12:43.765Z,25.78
2023-06-18T19:17:48.139Z,25.57
2023-06-18T19:22:51.001Z,25.41
2023-06-18T19:27:53.891Z,25.09
2023-06-18T19:32:59.222Z,24.71
2023-06-18T19:38:02.126Z,24.36
2023-06-18T19:43:05.413Z,23.98
2023-06-18T19:48:09.738Z,23.94
2023-06-18T19:53:12.559Z,23.91
2023-06-18T19:58:15.337Z,23.61
2023-06-18T20:03:23.975Z,23.45
2023-06-18T20:08:29.600Z,23.18
2023-06-18T20:13:32.415Z,23.08
2023-06-18T20:18:36.555Z,23.09
2023-06-18T20:23:39.344Z,22.94
2023-06-18T20:28:42.161Z,22.79
2023-06-18T20:33:46.326Z,22.58
2023-06-18T20:38:49.099Z,22.62
2023-06-18T20:43:51.889Z,22.51
2023-06-18T20:48:55.998Z,22.41
2023-06-18T20:54:00.080Z,22.37
2023-06-18T20:59:02.986Z,22.19
2023-06-18T21:04:07.278Z,22.05
2023-06-18T21:09:10.054Z,21.98
2023-06-18T21:14:12.982Z,21.97
2023-06-18T21:19:17.255Z,21.78
2023-06-18T21:24:20.382Z,21.75
2023-06-18T21:29:23.302Z,21.65
2023-06-18T21:34:27.732Z,21.60
2023-06-18T21:39:30.559Z,21.49
2023-06-18T21:44:33.492Z,21.39
2023-06-18T21:49:37.628Z,21.24
2023-06-18T21:54:40.434Z,21.27
2023-06-18T21:59:43.221Z,21.23
2023-06-18T22:04:47.438Z,21.11
2023-06-18T22:09:50.181Z,21.00
2023-06-18T22:14:53.501Z,20.98
2023-06-18T22:19:57.607Z,20.82
2023-06-18T22:25:00.344Z,20.81
2023-06-18T22:30:03.138Z,20.78
2023-06-18T22:35:08.974Z,20.81
2023-06-18T22:40:12.728Z,20.75
2023-06-18T22:45:15.512Z,20.61
2023-06-18T22:50:19.687Z,20.43
2023-06-18T22:55:22.452Z,20.44
2023-06-18T23:00:25.293Z,20.22
2023-06-18T23:05:29.643Z,20.12
2023-06-18T23:10:32.362Z,20.03
2023-06-18T23:15:35.164Z,19.86
2023-06-18T23:20:39.510Z,19.89
2023-06-18T23:25:42.297Z,19.82
2023-06-18T23:30:47.511Z,19.74
2023-06-18T23:35:52.551Z,19.62
2023-06-18T23:40:55.346Z,19.45
2023-06-18T23:45:58.186Z,19.47
2023-06-18T23:51:02.405Z,19.51
2023-06-18T23:56:05.651Z,19.39
